createdAt,value
2023-01-04T03:41:04.132Z,3.37
2023-01-04T03:45:05.916Z,1.80
2023-01-04T05:07:50.653Z,4.38
2023-01-04T05:10:38.081Z,1.88
2023-01-04T05:13:26.941Z,2.97
2023-01-04T05:16:12.363Z,1.90
2023-01-04T05:19:00.688Z,3.22
2023-01-04T05:21:46.034Z,2.63
2023-01-04T05:24:31.427Z,5.10
2023-01-04T05:27:17.051Z,3.63
2023-01-04T05:30:22.103Z,4.97
2023-01-04T05:33:08.106Z,3.40
2023-01-04T05:35:54.344Z,5.07
2023-01-04T05:38:39.728Z,4.97
2023-01-04T05:41:43.776Z,4.07
2023-01-04T05:44:29.482Z,3.97
2023-01-04T05:47:15.505Z,4.22
2023-01-04T05:50:00.886Z,3.55
2023-01-04T05:52:46.890Z,2.85
2023-01-04T05:55:32.858Z,3.30
2023-01-04T05:58:18.428Z,3.80
2023-01-04T06:01:03.867Z,2.72
2023-01-04T06:03:49.386Z,3.78
2023-01-04T06:06:35.000Z,2.05
2023-01-04T06:09:20.466Z,4.20
2023-01-04T06:12:05.993Z,2.78
2023-01-04T06:14:51.441Z,1.83
2023-01-04T06:17:36.897Z,3.38
2023-01-04T06:20:22.376Z,1.90
2023-01-04T06:23:08.891Z,2.45
2023-01-04T06:25:54.229Z,3.97
2023-01-04T06:28:41.280Z,2.50
2023-01-04T06:31:27.117Z,2.38
2023-01-04T06:34:14.084Z,2.00
2023-01-04T06:36:59.753Z,1.88
2023-01-04T06:39:45.413Z,1.83
2023-01-04T06:42:45.830Z,2.28
2023-01-04T06:45:31.382Z,2.80
2023-01-04T06:48:17.904Z,2.03
2023-01-04T06:51:03.902Z,1.20
2023-01-04T06:53:49.590Z,2.53
2023-01-04T06:56:34.915Z,1.92
2023-01-04T06:59:20.467Z,2.35
2023-01-04T07:02:05.813Z,1.30
2023-01-04T07:04:51.768Z,2.28
2023-01-04T07:07:36.987Z,2.00
2023-01-04T07:10:22.639Z,4.13
2023-01-04T07:13:08.524Z,3.67
2023-01-04T07:15:54.301Z,2.28
2023-01-04T07:18:40.115Z,1.57
2023-01-04T07:21:26.812Z,1.40
2023-01-04T07:24:12.569Z,3.77
2023-01-04T07:27:01.590Z,1.58
2023-01-04T07:29:46.881Z,2.20
2023-01-04T07:32:32.244Z,2.87
2023-01-04T07:35:18.105Z,1.83
2023-01-04T07:38:03.542Z,5.65
2023-01-04T07:40:56.705Z,1.43
2023-01-04T07:43:42.427Z,3.05
2023-01-04T07:46:28.298Z,1.10
2023-01-04T07:49:17.832Z,1.27
2023-01-04T07:52:03.690Z,1.20
2023-01-04T07:54:49.469Z,0.90
2023-01-04T07:57:34.939Z,1.50
2023-01-04T08:00:20.493Z,1.17
2023-01-04T08:03:06.076Z,2.13
2023-01-04T08:05:51.750Z,1.50
2023-01-04T08:08:37.453Z,3.50
2023-01-04T08:11:24.205Z,1.13
2023-01-04T08:14:10.213Z,1.33
2023-01-04T08:16:55.653Z,1.60
2023-01-04T08:19:41.125Z,1.85
2023-01-04T08:22:26.551Z,2.67
2023-01-04T08:25:12.076Z,2.08
2023-01-04T08:27:57.424Z,1.60
2023-01-04T08:30:42.812Z,1.00
2023-01-04T08:33:28.290Z,1.73
2023-01-04T08:36:26.968Z,1.60
2023-01-04T08:39:13.164Z,1.20
2023-01-04T08:42:06.140Z,1.13
2023-01-04T08:44:59.882Z,1.40
2023-01-04T08:47:45.265Z,4.00
2023-01-04T08:50:30.970Z,0.60
2023-01-04T08:53:16.708Z,1.50
2023-01-04T08:56:02.728Z,1.67
2023-01-04T08:58:47.961Z,0.52
2023-01-04T09:01:34.985Z,0.80
2023-01-04T09:04:20.835Z,1.10
2023-01-04T09:07:06.485Z,0.80
2023-01-04T09:09:51.925Z,0.90
2023-01-04T09:12:37.886Z,1.10
2023-01-04T09:15:23.778Z,0.70
2023-01-04T09:18:31.911Z,0.65
2023-01-04T09:21:20.671Z,1.38
2023-01-04T09:24:06.096Z,1.10
2023-01-04T09:26:51.479Z,0.40
2023-01-04T09:29:37.372Z,1.00
2023-01-04T09:32:22.928Z,3.17
2023-01-04T09:35:09.401Z,1.08
2023-01-04T09:37:56.220Z,0.90
2023-01-04T09:40:58.306Z,0.75
2023-01-04T09:43:48.231Z,0.40
2023-01-04T09:47:03.497Z,0.32
2023-01-04T09:50:00.257Z,0.70
2023-01-04T09:52:57.267Z,0.90
2023-01-04T09:56:04.931Z,2.22
2023-01-04T09:59:09.480Z,1.20
2023-01-04T10:02:18.984Z,0.57
2023-01-04T10:05:06.471Z,0.35
2023-01-04T10:07:55.772Z,0.73
2023-01-04T10:11:04.755Z,0.40
2023-01-04T10:14:32.941Z,0.40
2023-01-04T10:21:29.883Z,0.38
2023-01-04T10:24:41.565Z,0.40
2023-01-04T10:27:58.365Z,0.30
2023-01-04T10:30:54.657Z,0.30
2023-01-04T10:34:21.701Z,0.35
2023-01-04T10:37:16.436Z,0.43
2023-01-04T10:40:02.314Z,1.20
2023-01-04T10:43:02.333Z,0.55
2023-01-04T10:46:02.340Z,0.63
2023-01-04T10:49:19.208Z,0.38
2023-01-04T10:52:16.210Z,0.30
2023-01-04T10:55:08.284Z,0.40
2023-01-04T10:57:59.896Z,0.30
2023-01-04T11:00:51.320Z,1.30
2023-01-04T11:04:00.023Z,1.00
2023-01-04T11:07:02.811Z,0.32
2023-01-04T11:09:55.338Z,0.30
2023-01-04T11:12:41.675Z,0.30
2023-01-04T11:15:27.358Z,0.20
2023-01-04T11:18:17.150Z,0.30
2023-01-04T11:21:20.309Z,0.40
2023-01-04T11:24:34.124Z,0.30
2023-01-04T11:27:27.296Z,0.20
2023-01-04T11:30:26.042Z,0.30
2023-01-04T11:33:17.838Z,0.30
2023-01-04T11:36:03.380Z,0.60
2023-01-04T11:38:56.767Z,0.28
2023-01-04T11:42:03.269Z,0.30
2023-01-04T11:45:13.685Z,0.52
2023-01-04T11:48:00.865Z,0.30
2023-01-04T11:50:48.492Z,0.20
2023-01-04T11:53:37.640Z,0.60
2023-01-04T11:56:25.659Z,0.22
2023-01-04T11:59:17.942Z,0.30
2023-01-04T12:02:59.369Z,0.30
2023-01-04T12:05:32.908Z,0.20
2023-01-04T12:08:29.235Z,0.20
2023-01-04T12:11:26.198Z,1.00
2023-01-04T12:14:21.967Z,0.35
2023-01-04T12:17:18.253Z,0.40
2023-01-04T12:20:16.409Z,0.30
2023-01-04T12:23:04.629Z,0.20
2023-01-04T12:25:52.410Z,0.17
2023-01-04T12:28:41.300Z,0.30
2023-01-04T12:31:32.704Z,0.20
2023-01-04T12:34:26.357Z,0.20
2023-01-04T12:37:40.711Z,0.10
2023-01-04T12:40:50.558Z,0.10
2023-01-04T12:43:44.755Z,0.20
2023-01-04T12:46:59.124Z,0.10
2023-01-04T12:50:00.454Z,0.10
2023-01-04T12:55:57.264Z,1.05
2023-01-04T12:59:25.808Z,0.10
2023-01-04T13:02:21.181Z,0.10
2023-01-04T13:05:54.841Z,0.10
2023-01-04T13:08:25.277Z,0.23
2023-01-04T13:11:48.554Z,0.10
2023-01-04T13:14:43.476Z,0.20
2023-01-04T13:17:42.459Z,0.30
2023-01-04T13:20:30.915Z,0.20
2023-01-04T13:23:17.355Z,0.20
2023-01-04T13:26:37.513Z,0.15
2023-01-04T13:29:23.257Z,0.25
2023-01-04T13:32:13.006Z,0.10
2023-01-04T13:35:21.019Z,0.10
2023-01-04T13:38:16.988Z,0.10
2023-01-04T13:41:12.158Z,0.20
2023-01-04T13:44:11.460Z,0.20
2023-01-04T13:46:57.518Z,0.10
2023-01-04T13:49:44.019Z,0.20
2023-01-04T13:55:38.215Z,0.20
2023-01-04T13:58:28.677Z,0.17
2023-01-04T14:02:46.071Z,0.10
2023-01-04T14:05:05.148Z,0.10
2023-01-04T14:07:51.673Z,0.10
2023-01-04T14:10:42.731Z,0.63
2023-01-04T14:13:29.079Z,0.10
2023-01-04T14:16:15.615Z,0.20
2023-01-04T14:19:39.220Z,0.40
2023-01-04T14:22:36.787Z,0.40
2023-01-04T14:25:31.121Z,0.63
2023-01-04T14:28:24.513Z,5.00
2023-01-04T14:31:09.973Z,0.17
2023-01-04T14:33:56.239Z,0.20
2023-01-04T14:36:43.179Z,0.20
2023-01-04T14:39:33.318Z,0.30
2023-01-04T14:42:28.120Z,0.30
2023-01-04T14:45:14.217Z,0.47
2023-01-04T14:47:59.557Z,0.20
2023-01-04T14:50:45.231Z,0.40
2023-01-04T14:53:30.625Z,0.38
2023-01-04T14:56:28.312Z,0.40
2023-01-04T14:59:14.510Z,0.50
2023-01-04T15:02:00.654Z,0.50
2023-01-04T15:04:46.780Z,0.30
2023-01-04T15:07:39.910Z,0.30
2023-01-04T15:10:28.110Z,0.40
2023-01-04T15:13:14.704Z,0.30
2023-01-04T15:16:00.340Z,0.90
2023-01-04T15:18:46.785Z,1.00
2023-01-04T15:21:36.955Z,1.10
2023-01-04T15:24:26.489Z,0.40
2023-01-04T15:27:12.776Z,0.70
2023-01-04T15:29:58.283Z,0.20
2023-01-04T15:32:43.652Z,0.30
2023-01-04T15:35:29.081Z,2.17
2023-01-04T15:38:18.454Z,0.80
2023-01-04T15:41:08.903Z,0.20
2023-01-04T15:43:54.679Z,0.30
2023-01-04T15:46:40.293Z,0.20
2023-01-04T15:49:25.979Z,0.13
2023-01-04T15:52:11.380Z,0.40
2023-01-04T15:54:57.010Z,0.10
2023-01-04T15:57:44.288Z,0.57
2023-01-04T16:00:30.243Z,0.90
2023-01-04T16:03:15.665Z,0.20
2023-01-04T16:06:05.442Z,0.50
2023-01-04T16:08:52.992Z,0.70
2023-01-04T16:11:58.492Z,0.73
2023-01-04T16:14:44.092Z,0.77
2023-01-04T16:17:29.788Z,1.40
2023-01-04T16:20:16.949Z,1.38
2023-01-04T16:23:02.518Z,1.10
2023-01-04T16:25:51.160Z,0.85
2023-01-04T16:28:37.276Z,2.40
2023-01-04T16:31:23.048Z,1.00
2023-01-04T16:34:12.155Z,2.67
2023-01-04T16:36:58.080Z,2.42
2023-01-04T16:42:51.295Z,1.90
2023-01-04T16:45:36.932Z,2.07
2023-01-04T16:48:22.547Z,1.60
2023-01-04T16:51:08.470Z,2.45
2023-01-04T16:53:54.828Z,3.05
2023-01-04T16:56:41.673Z,2.97
2023-01-04T16:59:27.053Z,3.50
2023-01-04T17:02:13.104Z,2.72
2023-01-04T17:05:01.209Z,1.67
2023-01-04T17:07:46.794Z,3.97
2023-01-04T17:10:36.340Z,0.90
2023-01-04T17:13:21.742Z,2.15
2023-01-04T17:16:08.555Z,1.30
2023-01-04T17:18:55.372Z,4.90
2023-01-04T17:21:41.267Z,3.60
2023-01-04T17:24:29.893Z,2.58
2023-01-04T17:27:18.161Z,3.05
2023-01-04T17:30:04.897Z,0.98
2023-01-04T17:32:50.345Z,5.30
2023-01-04T17:35:39.817Z,2.92
2023-01-04T17:38:25.902Z,4.05
2023-01-04T17:41:20.474Z,2.55
2023-01-04T17:44:06.781Z,3.20
2023-01-04T17:46:52.997Z,1.98
2023-01-04T17:49:38.772Z,3.10
2023-01-04T17:52:30.647Z,6.18
2023-01-04T17:55:17.858Z,3.15
2023-01-04T17:58:07.820Z,5.23
2023-01-04T18:00:57.851Z,3.88
2023-01-04T18:03:46.499Z,2.97
2023-01-04T18:06:36.113Z,3.85
2023-01-04T18:09:24.507Z,5.33
2023-01-04T18:12:10.185Z,4.67
2023-01-04T18:14:56.223Z,4.75
2023-01-04T18:17:41.645Z,3.42
2023-01-04T18:20:27.140Z,3.50
2023-01-04T18:23:24.369Z,3.83
2023-01-04T18:26:12.241Z,2.97
2023-01-04T18:28:58.450Z,4.45
2023-01-04T18:31:43.657Z,5.85
2023-01-04T18:34:29.394Z,3.70
2023-01-04T18:37:15.929Z,4.78
2023-01-04T18:40:03.108Z,6.45
2023-01-04T18:42:49.929Z,4.75
2023-01-04T18:45:41.173Z,2.97
2023-01-04T18:49:36.516Z,6.43
2023-01-04T18:52:22.805Z,5.60
2023-01-04T18:55:11.565Z,4.97
2023-01-04T18:58:05.108Z,2.40
2023-01-04T19:01:29.401Z,3.80
2023-01-04T19:04:16.147Z,5.68
2023-01-04T19:07:02.346Z,7.25
2023-01-04T19:09:48.541Z,4.75
2023-01-04T19:12:39.115Z,8.00
2023-01-04T19:15:25.909Z,5.18
2023-01-04T19:18:11.628Z,4.10
2023-01-04T19:21:00.740Z,5.17
2023-01-04T19:23:48.011Z,6.35
2023-01-04T19:26:33.804Z,7.22
2023-01-04T19:29:19.671Z,3.50
2023-01-04T19:32:05.962Z,6.80
2023-01-04T19:34:52.047Z,4.40
2023-01-04T19:37:37.862Z,2.45
2023-01-04T19:40:24.070Z,3.03
2023-01-04T19:43:09.848Z,13.80
2023-01-04T19:45:55.800Z,5.15
2023-01-04T19:48:43.041Z,3.70
2023-01-04T19:51:29.630Z,3.35
2023-01-04T19:54:21.527Z,3.58
2023-01-04T19:57:11.290Z,3.10
2023-01-04T19:59:57.213Z,4.03
2023-01-04T20:02:43.201Z,5.47
2023-01-04T20:05:29.163Z,3.38
2023-01-04T20:08:15.704Z,4.32
2023-01-04T20:11:03.682Z,9.35
2023-01-04T20:13:50.182Z,5.70
2023-01-04T20:16:36.865Z,7.55
2023-01-04T20:19:24.401Z,6.18
2023-01-04T20:42:00.885Z,8.48
